NORTHEAST SUFFOLK  -  Winter Weather Advisory Winter Weather Advisory        NORTHERN NASSAU  -  Winter Weather Advisory Winter Weather Advisory        NORTHWEST SUFFOLK  -  Winter Weather Advisory Winter Weather Advisory        SOUTHEAST SUFFOLK  -  Winter Weather Advisory Winter Weather Advisory        SOUTHERN NASSAU  -  Winter Weather Advisory Winter Weather Advisory        SOUTHWEST SUFFOLK  -  Winter Weather Advisory Winter Weather Advisory      

Active alerts

Northern Nassau
  Details for Northern Nassau Winter Weather Advisory
Southern Nassau
  Details for Southern Nassau Winter Weather Advisory
Northwest Suffolk
  Details for Northwest Suffolk Winter Weather Advisory
Southwest Suffolk
  Details for Southwest Suffolk Winter Weather Advisory
Northeast Suffolk
  Details for Northeast Suffolk Winter Weather Advisory
Southeast Suffolk
  Details for Southeast Suffolk Winter Weather Advisory


WXM80 ListenWXM80 Stop

You find our weather info also at:

UK Metoffice

WeatherCloud

Weather Underground

Northeastern Weather Network

AWEKAS

Citizen Weather Observer Program (CWOP)

HAMweather, WeatherForYou, PWS Weather


Weather Underground History page Text

Daily Summary for May 22, 2017 Units:  English    Metric   Both
« Previous Day
Next Day »
Daily Weekly Monthly Yearly Custom
  High: Low: Average:
Temperature: 60.9 °F 51.9 °F 57.1 °F
Dew Point: 60.0 °F 41.9 °F 53.8 °F
Humidity: 97 % 58 % 89 %
Wind Speed: 5.1 mph 0.0 mph 0.7 mph
Wind Gust: 11.5 mph - -
Wind:- - South
Pressure: 30.22 in 29.91 in -
Precipitation: 0.59 in    
Historical Graphs
 
 
Tabular Data for May 22, 2017
Time Temperature Dew Point Pressure Wind Wind Speed Wind Gust Humidity Rainfall Rate (Hourly)
00:03 56.5 °F 42.8 °F 30.22 in SE 0.1 mph 1.0 mph 60 % 0.00 in
00:08 56.5 °F 42.3 °F 30.22 in SE 2.5 mph 4.0 mph 59 % 0.00 in
00:13 56.5 °F 42.3 °F 30.22 in SE 0.2 mph 1.2 mph 59 % 0.00 in
00:18 56.5 °F 41.9 °F 30.21 in SSE 3.8 mph 6.9 mph 58 % 0.00 in
00:23 56.6 °F 42.4 °F 30.21 in SSE 0.6 mph 2.3 mph 59 % 0.00 in
00:28 56.6 °F 42.4 °F 30.20 in SE 1.3 mph 3.5 mph 59 % 0.00 in
00:33 56.6 °F 42.0 °F 30.20 in Calm   3.5 mph 58 % 0.00 in
00:38 56.6 °F 42.0 °F 30.20 in SE 2.5 mph 3.5 mph 58 % 0.00 in
00:43 56.6 °F 42.0 °F 30.20 in Calm   1.2 mph 58 % 0.00 in
00:48 56.6 °F 42.4 °F 30.20 in SSE 0.2 mph 1.2 mph 59 % 0.00 in
00:53 56.6 °F 42.4 °F 30.20 in SE 1.3 mph 3.5 mph 59 % 0.00 in
00:58 56.6 °F 42.4 °F 30.20 in SSE 0.7 mph 3.5 mph 59 % 0.00 in
01:03 56.6 °F 42.4 °F 30.20 in WSW 1.8 mph 3.5 mph 59 % 0.00 in
01:08 56.6 °F 42.4 °F 30.20 in Calm   1.2 mph 59 % 0.00 in
01:13 56.6 °F 42.4 °F 30.20 in Calm   1.2 mph 59 % 0.00 in
01:18 56.7 °F 42.5 °F 30.19 in SSE 1.4 mph 3.5 mph 59 % 0.00 in
01:23 56.7 °F 42.5 °F 30.19 in SE 0.6 mph 2.3 mph 59 % 0.00 in
01:29 56.7 °F 43.0 °F 30.18 in SE 2.9 mph 4.6 mph 60 % 0.00 in
01:34 56.7 °F 43.0 °F 30.18 in SE 0.9 mph 4.0 mph 60 % 0.00 in
01:39 56.7 °F 42.5 °F 30.18 in SE 0.1 mph 3.5 mph 59 % 0.00 in
01:44 56.7 °F 42.5 °F 30.18 in SSE 1.3 mph 6.9 mph 59 % 0.00 in
01:49 56.7 °F 42.5 °F 30.18 in Calm     59 % 0.00 in
01:54 56.7 °F 42.5 °F 30.18 in SE 3.5 mph 5.8 mph 59 % 0.00 in
01:59 56.8 °F 42.6 °F 30.18 in Calm     59 % 0.00 in
02:04 56.8 °F 43.1 °F 30.18 in Calm     60 % 0.00 in
02:09 56.8 °F 43.5 °F 30.18 in Calm   1.2 mph 61 % 0.00 in
02:14 56.8 °F 43.5 °F 30.18 in Calm   2.3 mph 61 % 0.00 in
02:19 56.8 °F 43.9 °F 30.18 in WSW 1.6 mph 3.5 mph 62 % 0.00 in
02:24 56.8 °F 43.9 °F 30.18 in WSW 1.4 mph 3.5 mph 62 % 0.00 in
02:29 56.7 °F 43.8 °F 30.18 in WSW 0.1 mph 2.0 mph 62 % 0.00 in
02:34 56.7 °F 45.1 °F 30.17 in Calm   1.2 mph 65 % 0.00 in
02:36 56.6 °F 44.6 °F 30.17 in WSW 0.2 mph 1.2 mph 64 % 0.00 in
02:41 56.6 °F 44.6 °F 30.17 in Calm     64 % 0.00 in
02:46 56.5 °F 44.9 °F 30.17 in Calm   2.3 mph 65 % 0.00 in
02:51 56.4 °F 44.8 °F 30.17 in Calm   1.2 mph 65 % 0.00 in
02:56 56.4 °F 45.6 °F 30.17 in Calm   1.2 mph 67 % 0.00 in
03:01 56.3 °F 45.5 °F 30.17 in Calm     67 % 0.00 in
03:06 56.2 °F 45.8 °F 30.17 in Calm     68 % 0.00 in
03:11 56.1 °F 46.1 °F 30.17 in WSW 1.1 mph 3.5 mph 69 % 0.00 in
03:16 56.0 °F 46.0 °F 30.17 in Calm     69 % 0.00 in
03:21 55.9 °F 45.9 °F 30.17 in Calm     69 % 0.00 in
03:26 55.8 °F 46.2 °F 30.17 in Calm     70 % 0.00 in
03:31 55.8 °F 46.2 °F 30.17 in Calm     70 % 0.00 in
03:36 55.7 °F 46.4 °F 30.17 in Calm     71 % 0.00 in
03:41 55.6 °F 46.3 °F 30.17 in Calm     71 % 0.00 in
03:46 55.5 °F 46.2 °F 30.17 in Calm     71 % 0.00 in
03:52 55.4 °F 47.6 °F 30.17 in Calm     75 % 0.01 in
03:57 55.3 °F 47.9 °F 30.17 in Calm     76 % 0.01 in
04:02 55.1 °F 48.4 °F 30.17 in Calm     78 % 0.01 in
04:07 55.0 °F 48.6 °F 30.17 in Calm     79 % 0.01 in
04:12 54.9 °F 49.2 °F 30.16 in Calm     81 % 0.01 in
04:17 54.8 °F 48.7 °F 30.16 in Calm     80 % 0.02 in
04:22 54.7 °F 49.3 °F 30.16 in Calm     82 % 0.02 in
04:27 54.6 °F 49.9 °F 30.16 in Calm     84 % 0.02 in
04:32 54.5 °F 50.1 °F 30.16 in Calm   1.2 mph 85 % 0.08 in
04:37 54.3 °F 50.2 °F 30.16 in Calm     86 % 0.10 in
04:42 54.2 °F 50.4 °F 30.16 in Calm     87 % 0.11 in
04:47 54.1 °F 50.6 °F 30.17 in Calm     88 % 0.12 in
04:52 54.0 °F 50.5 °F 30.17 in Calm     88 % 0.12 in
04:57 53.9 °F 50.7 °F 30.16 in NW 1.4 mph 2.3 mph 89 % 0.13 in
05:02 53.7 °F 50.5 °F 30.16 in Calm     89 % 0.14 in
05:07 53.5 °F 50.3 °F 30.15 in Calm     89 % 0.14 in
05:12 53.3 °F 49.8 °F 30.16 in Calm     88 % 0.15 in
05:17 53.2 °F 49.7 °F 30.16 in Calm     88 % 0.14 in
05:22 53.0 °F 49.5 °F 30.16 in Calm     88 % 0.14 in
05:27 52.8 °F 49.3 °F 30.15 in Calm     88 % 0.14 in
05:32 52.7 °F 49.5 °F 30.15 in Calm     89 % 0.08 in
05:38 52.6 °F 49.8 °F 30.15 in Calm     90 % 0.06 in
05:43 52.4 °F 49.8 °F 30.15 in Calm     91 % 0.05 in
05:48 52.3 °F 49.8 °F 30.15 in Calm   1.2 mph 91 % 0.04 in
05:53 52.3 °F 50.0 °F 30.14 in Calm     92 % 0.03 in
05:58 52.2 °F 49.9 °F 30.15 in NW 0.2 mph 1.2 mph 92 % 0.01 in
06:03 52.0 °F 49.5 °F 30.15 in Calm     91 % 0.01 in
06:08 52.0 °F 49.5 °F 30.15 in Calm     91 % 0.01 in
06:13 51.9 °F 49.4 °F 30.15 in Calm     91 % 0.00 in
06:18 51.9 °F 49.4 °F 30.15 in Calm     91 % 0.00 in
06:23 51.9 °F 49.6 °F 30.15 in Calm     92 % 0.00 in
06:28 52.0 °F 50.0 °F 30.15 in Calm     93 % 0.00 in
06:33 52.0 °F 50.0 °F 30.15 in Calm     93 % 0.00 in
06:38 52.0 °F 50.0 °F 30.15 in Calm     93 % 0.00 in
06:43 52.0 °F 50.0 °F 30.15 in Calm     93 % 0.00 in
06:48 51.9 °F 49.9 °F 30.14 in Calm     93 % 0.00 in
06:53 52.0 °F 50.0 °F 30.14 in Calm   2.3 mph 93 % 0.00 in
06:58 52.1 °F 50.1 °F 30.15 in Calm     93 % 0.00 in
07:03 52.2 °F 50.5 °F 30.15 in Calm   1.2 mph 94 % 0.00 in
07:08 52.3 °F 50.6 °F 30.14 in South 1.0 mph 2.0 mph 94 % 0.00 in
07:13 52.3 °F 50.6 °F 30.14 in South 0.4 mph 1.2 mph 94 % 0.00 in
07:18 52.3 °F 50.6 °F 30.14 in SE 1.2 mph 3.5 mph 94 % 0.00 in
07:23 52.4 °F 50.7 °F 30.14 in SE 0.5 mph 1.2 mph 94 % 0.00 in
07:28 52.5 °F 50.8 °F 30.14 in SE 0.2 mph 1.2 mph 94 % 0.00 in
07:33 52.6 °F 50.9 °F 30.14 in Calm   1.2 mph 94 % 0.00 in
07:38 52.8 °F 51.4 °F 30.14 in Calm     95 % 0.00 in
07:39 52.8 °F 51.4 °F 30.14 in Calm   1.2 mph 95 % 0.00 in
07:44 52.8 °F 51.1 °F 30.14 in Calm   1.2 mph 94 % 0.00 in
07:49 52.9 °F 51.5 °F 30.14 in Calm   1.2 mph 95 % 0.00 in
07:54 53.0 °F 51.6 °F 30.15 in Calm     95 % 0.00 in
07:59 53.1 °F 51.7 °F 30.15 in Calm     95 % 0.00 in
08:04 53.2 °F 51.8 °F 30.14 in Calm     95 % 0.00 in
08:09 53.3 °F 51.9 °F 30.14 in NNE 0.1 mph   95 % 0.00 in
08:14 53.3 °F 51.9 °F 30.14 in ENE 0.3 mph 2.3 mph 95 % 0.00 in
08:19 53.3 °F 51.9 °F 30.14 in ENE 0.1 mph 1.0 mph 95 % 0.00 in
08:24 53.3 °F 51.9 °F 30.14 in Calm     95 % 0.00 in
08:25 53.4 °F 52.0 °F 30.14 in Calm     95 % 0.00 in
08:30 53.5 °F 52.1 °F 30.14 in Calm     95 % 0.00 in
08:35 53.5 °F 52.1 °F 30.14 in ENE 0.1 mph 2.3 mph 95 % 0.00 in
08:40 53.7 °F 52.3 °F 30.14 in Calm   2.3 mph 95 % 0.00 in
08:42 53.8 °F 52.4 °F 30.13 in Calm   3.5 mph 95 % 0.00 in
08:47 54.0 °F 52.9 °F 30.14 in Calm     96 % 0.00 in
08:52 54.3 °F 53.2 °F 30.14 in Calm     96 % 0.00 in
08:57 54.4 °F 53.3 °F 30.14 in Calm   1.2 mph 96 % 0.00 in
09:02 54.5 °F 53.4 °F 30.14 in Calm     96 % 0.00 in
09:08 54.7 °F 53.6 °F 30.14 in ESE 0.5 mph 2.3 mph 96 % 0.00 in
09:13 54.7 °F 53.6 °F 30.14 in SE 2.8 mph 4.6 mph 96 % 0.00 in
09:18 54.7 °F 53.3 °F 30.13 in SE 0.4 mph 3.5 mph 95 % 0.00 in
09:23 54.9 °F 53.5 °F 30.13 in SSE 0.6 mph 3.0 mph 95 % 0.00 in
09:28 55.0 °F 53.6 °F 30.13 in SE 2.6 mph 4.0 mph 95 % 0.00 in
09:33 55.1 °F 53.7 °F 30.13 in SE 2.3 mph 4.6 mph 95 % 0.00 in
09:38 55.3 °F 53.9 °F 30.13 in SE 0.8 mph 2.3 mph 95 % 0.00 in
09:43 55.5 °F 54.1 °F 30.12 in Calm   1.2 mph 95 % 0.00 in
09:48 55.7 °F 54.3 °F 30.12 in Calm     95 % 0.00 in
09:53 55.9 °F 54.5 °F 30.12 in SSE 1.2 mph 2.3 mph 95 % 0.00 in
09:58 55.9 °F 54.2 °F 30.12 in SE 1.8 mph 4.6 mph 94 % 0.00 in
10:03 55.8 °F 53.2 °F 30.12 in SW 2.2 mph 6.9 mph 91 % 0.00 in
10:08 55.8 °F 52.9 °F 30.12 in SSE 3.0 mph 6.9 mph 90 % 0.00 in
10:13 55.9 °F 52.7 °F 30.12 in SE 2.9 mph 5.8 mph 89 % 0.00 in
10:18 55.9 °F 52.7 °F 30.12 in SSE 4.3 mph 4.6 mph 89 % 0.00 in
10:23 56.0 °F 52.8 °F 30.12 in ESE 0.9 mph 4.6 mph 89 % 0.00 in
10:28 56.0 °F 52.8 °F 30.12 in SSE 3.2 mph 5.0 mph 89 % 0.00 in
10:33 56.0 °F 52.8 °F 30.11 in SSE 5.0 mph 6.9 mph 89 % 0.00 in
10:38 55.9 °F 53.0 °F 30.11 in SE 1.1 mph 3.5 mph 90 % 0.01 in
10:43 56.0 °F 53.4 °F 30.10 in SE 1.3 mph 4.6 mph 91 % 0.01 in
10:48 56.1 °F 53.8 °F 30.10 in Calm   1.2 mph 92 % 0.01 in
10:53 56.3 °F 54.3 °F 30.10 in Calm   1.2 mph 93 % 0.02 in
10:58 56.3 °F 54.3 °F 30.09 in Calm   1.2 mph 93 % 0.02 in
11:03 56.3 °F 54.3 °F 30.09 in Calm     93 % 0.02 in
11:08 56.4 °F 54.4 °F 30.09 in Calm     93 % 0.02 in
11:14 56.5 °F 54.8 °F 30.08 in Calm   2.3 mph 94 % 0.02 in
11:19 56.6 °F 54.9 °F 30.08 in Calm   2.3 mph 94 % 0.02 in
11:24 56.6 °F 54.9 °F 30.08 in SE 2.2 mph 4.6 mph 94 % 0.03 in
11:29 56.6 °F 54.9 °F 30.08 in SSE 1.7 mph 4.6 mph 94 % 0.03 in
11:34 56.5 °F 54.8 °F 30.08 in SSE 1.7 mph 3.5 mph 94 % 0.04 in
11:39 56.5 °F 54.8 °F 30.08 in SSE 5.1 mph 5.1 mph 94 % 0.03 in
11:44 56.5 °F 54.8 °F 30.07 in SE 1.7 mph 3.5 mph 94 % 0.04 in
11:49 56.6 °F 54.9 °F 30.07 in SE 2.7 mph 5.0 mph 94 % 0.04 in
11:54 56.6 °F 54.9 °F 30.07 in SE 0.6 mph 3.5 mph 94 % 0.03 in
11:55 56.6 °F 54.9 °F 30.08 in SSE 0.9 mph 3.0 mph 94 % 0.03 in
12:00 56.8 °F 55.4 °F 30.07 in SE 1.1 mph 3.5 mph 95 % 0.04 in
12:05 56.8 °F 55.4 °F 30.07 in SSE 0.6 mph 2.3 mph 95 % 0.04 in
12:10 56.8 °F 55.4 °F 30.07 in SSE 1.4 mph 4.6 mph 95 % 0.04 in
12:15 56.8 °F 55.4 °F 30.06 in SE 0.9 mph 6.0 mph 95 % 0.04 in
12:20 56.8 °F 55.4 °F 30.06 in SSE 0.6 mph 3.5 mph 95 % 0.04 in
12:25 56.9 °F 55.5 °F 30.06 in SE 1.0 mph 6.0 mph 95 % 0.00 in
12:30 56.9 °F 55.5 °F 30.06 in SE 1.0 mph 8.0 mph 95 % 0.00 in
12:35 56.9 °F 55.5 °F 30.06 in SE 5.0 mph 7.0 mph 95 % 0.00 in
12:40 56.9 °F 55.5 °F 30.05 in SE 1.0 mph 3.0 mph 95 % 0.00 in
12:45 57.0 °F 55.6 °F 30.05 in SE 3.0 mph 6.0 mph 95 % 0.00 in
12:50 57.0 °F 55.6 °F 30.05 in Calm   6.0 mph 95 % 0.00 in
12:55 57.1 °F 55.7 °F 30.05 in SE 1.0 mph 5.0 mph 95 % 0.00 in
13:01 57.1 °F 55.7 °F 30.05 in SE 0.9 mph 4.0 mph 95 % 0.03 in
13:06 57.1 °F 56.0 °F 30.05 in SE 0.7 mph 2.3 mph 96 % 0.03 in
13:11 57.1 °F 56.0 °F 30.04 in SE 0.4 mph 2.3 mph 96 % 0.03 in
13:16 57.3 °F 56.2 °F 30.04 in Calm   1.2 mph 96 % 0.04 in
13:21 57.4 °F 56.3 °F 30.04 in SSE 0.2 mph 3.5 mph 96 % 0.04 in
13:26 57.4 °F 56.3 °F 30.04 in Calm   1.2 mph 96 % 0.03 in
13:31 57.4 °F 56.3 °F 30.04 in SSE 3.3 mph 6.9 mph 96 % 0.03 in
13:36 57.4 °F 56.3 °F 30.04 in SE 0.1 mph 1.2 mph 96 % 0.03 in
13:41 57.5 °F 56.4 °F 30.04 in Calm   1.2 mph 96 % 0.04 in
13:46 57.5 °F 56.4 °F 30.04 in East 0.4 mph 1.2 mph 96 % 0.03 in
13:51 57.5 °F 56.4 °F 30.03 in Calm   2.3 mph 96 % 0.03 in
13:56 57.6 °F 56.5 °F 30.03 in SE 1.1 mph 4.0 mph 96 % 0.03 in
14:01 57.7 °F 56.6 °F 30.03 in Calm     96 % 0.03 in
14:06 57.7 °F 56.6 °F 30.02 in Calm     96 % 0.03 in
14:07 57.7 °F 56.6 °F 30.02 in Calm     96 % 0.03 in
14:12 57.7 °F 56.6 °F 30.02 in Calm   1.2 mph 96 % 0.04 in
14:17 57.8 °F 56.7 °F 30.02 in SE 0.5 mph 3.5 mph 96 % 0.04 in
14:22 57.9 °F 56.8 °F 30.02 in Calm   1.2 mph 96 % 0.05 in
14:26 58.0 °F 56.9 °F 30.01 in Calm   1.2 mph 96 % 0.05 in
14:31 58.1 °F 57.0 °F 30.01 in Calm     96 % 0.05 in
14:36 58.1 °F 57.0 °F 30.01 in Calm   1.2 mph 96 % 0.06 in
14:41 58.2 °F 57.1 °F 30.01 in SE 1.2 mph 3.5 mph 96 % 0.05 in
14:46 58.2 °F 57.1 °F 30.01 in SE 0.8 mph 1.0 mph 96 % 0.06 in
14:51 58.4 °F 57.3 °F 30.01 in SSE 1.0 mph 2.3 mph 96 % 0.07 in
14:56 58.4 °F 57.3 °F 30.00 in SE 1.3 mph 3.5 mph 96 % 0.08 in
15:01 58.6 °F 57.5 °F 30.00 in Calm   1.2 mph 96 % 0.07 in
15:06 58.7 °F 57.9 °F 30.00 in Calm     97 % 0.07 in
15:07 58.7 °F 57.9 °F 30.00 in Calm     97 % 0.06 in
15:12 58.9 °F 58.1 °F 29.99 in SSE 1.5 mph 4.6 mph 97 % 0.06 in
15:17 59.0 °F 58.2 °F 29.99 in SE 2.8 mph 4.6 mph 97 % 0.05 in
15:22 59.1 °F 58.2 °F 29.99 in SE 0.7 mph 3.5 mph 97 % 0.05 in
15:27 59.2 °F 58.3 °F 29.98 in SE 1.2 mph 6.0 mph 97 % 0.05 in
15:32 59.4 °F 58.5 °F 29.98 in SE 0.3 mph 4.6 mph 97 % 0.06 in
15:37 59.5 °F 58.6 °F 29.98 in SE 3.3 mph 5.8 mph 97 % 0.05 in
15:42 59.5 °F 58.6 °F 29.98 in SE 1.6 mph 2.0 mph 97 % 0.05 in
15:47 59.6 °F 58.7 °F 29.98 in SSE 0.3 mph 4.6 mph 97 % 0.05 in
15:52 59.7 °F 58.8 °F 29.98 in SE 0.3 mph 1.2 mph 97 % 0.05 in
15:57 59.7 °F 58.8 °F 29.98 in SE 0.3 mph 1.2 mph 97 % 0.05 in
16:02 59.8 °F 58.9 °F 29.98 in SSW 0.4 mph 3.5 mph 97 % 0.05 in
16:08 59.9 °F 59.0 °F 29.97 in SSE 2.4 mph 5.8 mph 97 % 0.06 in
16:13 60.0 °F 59.1 °F 29.97 in SSE 0.7 mph 9.2 mph 97 % 0.07 in
16:18 60.1 °F 59.2 °F 29.97 in SSE 3.8 mph 6.9 mph 97 % 0.08 in
16:23 60.1 °F 59.2 °F 29.97 in SE 3.9 mph 8.1 mph 97 % 0.07 in
16:28 60.2 °F 59.3 °F 29.97 in South 3.0 mph 5.0 mph 97 % 0.07 in
16:33 60.2 °F 59.3 °F 29.97 in SE 0.6 mph 4.6 mph 97 % 0.06 in
16:38 60.3 °F 59.4 °F 29.96 in SSE 3.6 mph 6.9 mph 97 % 0.07 in
16:43 60.4 °F 59.5 °F 29.96 in SE 1.6 mph 5.0 mph 97 % 0.07 in
16:48 60.5 °F 59.6 °F 29.96 in SSW 0.2 mph 1.2 mph 97 % 0.06 in
16:53 60.6 °F 59.7 °F 29.97 in SE 0.1 mph 2.3 mph 97 % 0.05 in
16:58 60.6 °F 59.7 °F 29.96 in Calm   1.2 mph 97 % 0.04 in
17:03 60.7 °F 59.8 °F 29.95 in SSE 1.2 mph 4.6 mph 97 % 0.03 in
17:08 60.7 °F 59.8 °F 29.95 in SSE 1.1 mph 3.5 mph 97 % 0.03 in
17:13 60.8 °F 59.9 °F 29.95 in Calm   1.2 mph 97 % 0.02 in
17:18 60.8 °F 59.9 °F 29.95 in SSE 3.3 mph 4.6 mph 97 % 0.01 in
17:23 60.8 °F 59.9 °F 29.95 in SE 0.6 mph 2.0 mph 97 % 0.01 in
17:28 60.8 °F 59.9 °F 29.94 in SE 1.6 mph 3.0 mph 97 % 0.02 in
17:33 60.8 °F 59.9 °F 29.95 in Calm   1.2 mph 97 % 0.02 in
17:38 60.9 °F 60.0 °F 29.94 in SE 3.0 mph 3.0 mph 97 % 0.01 in
17:44 60.8 °F 59.9 °F 29.94 in SE 0.7 mph 5.8 mph 97 % 0.01 in
17:48 60.8 °F 59.9 °F 29.94 in SSE 0.7 mph 4.6 mph 97 % 0.01 in
17:53 60.8 °F 59.9 °F 29.94 in Calm   2.3 mph 97 % 0.02 in
17:58 60.8 °F 59.9 °F 29.93 in SSE 2.2 mph 8.1 mph 97 % 0.02 in
18:03 60.8 °F 59.9 °F 29.93 in West 0.2 mph 3.5 mph 97 % 0.03 in
18:08 60.8 °F 59.9 °F 29.93 in South 0.2 mph 2.3 mph 97 % 0.03 in
18:13 60.9 °F 60.0 °F 29.93 in NW 0.2 mph 1.2 mph 97 % 0.05 in
18:19 60.9 °F 60.0 °F 29.93 in Calm   3.5 mph 97 % 0.07 in
18:24 60.9 °F 60.0 °F 29.92 in Calm   1.2 mph 97 % 0.09 in
18:29 60.8 °F 59.9 °F 29.92 in SSE 1.8 mph 4.0 mph 97 % 0.09 in
18:34 60.8 °F 59.9 °F 29.92 in SSE 3.1 mph 3.1 mph 97 % 0.09 in
18:39 60.7 °F 59.8 °F 29.92 in South 0.5 mph 3.0 mph 97 % 0.10 in
18:44 60.8 °F 59.9 °F 29.92 in SSE 1.4 mph 3.5 mph 97 % 0.11 in
18:49 60.7 °F 59.8 °F 29.92 in SSW 3.4 mph 11.5 mph 97 % 0.13 in
18:54 60.7 °F 59.8 °F 29.92 in SSE 0.6 mph 3.5 mph 97 % 0.12 in
18:59 60.6 °F 59.7 °F 29.92 in SSW 0.8 mph 3.5 mph 97 % 0.12 in
19:04 60.6 °F 59.7 °F 29.92 in South 0.3 mph 1.2 mph 97 % 0.11 in
19:09 60.6 °F 59.7 °F 29.92 in South 0.7 mph 3.5 mph 97 % 0.10 in
19:14 60.6 °F 59.7 °F 29.93 in South 1.5 mph 3.5 mph 97 % 0.09 in
19:19 60.5 °F 59.6 °F 29.93 in WSW 0.9 mph 3.5 mph 97 % 0.07 in
19:24 60.5 °F 59.6 °F 29.92 in WSW 0.1 mph 1.0 mph 97 % 0.05 in
19:29 60.5 °F 59.6 °F 29.92 in WSW 0.2 mph 2.3 mph 97 % 0.04 in
19:34 60.5 °F 59.6 °F 29.93 in WSW 1.2 mph 3.0 mph 97 % 0.05 in
19:39 60.5 °F 59.6 °F 29.92 in Calm     97 % 0.04 in
19:44 60.5 °F 59.6 °F 29.93 in WSW 0.8 mph 5.8 mph 97 % 0.03 in
19:49 60.5 °F 59.6 °F 29.92 in Calm   1.2 mph 97 % 0.01 in
19:54 60.5 °F 59.6 °F 29.92 in WSW 1.3 mph 5.0 mph 97 % 0.01 in
19:59 60.5 °F 59.6 °F 29.92 in Calm     97 % 0.01 in
20:04 60.5 °F 59.6 °F 29.93 in WSW 0.1 mph 1.2 mph 97 % 0.01 in
20:09 60.5 °F 59.6 °F 29.93 in Calm     97 % 0.01 in
20:14 60.5 °F 59.6 °F 29.92 in Calm   1.2 mph 97 % 0.01 in
20:19 60.5 °F 59.6 °F 29.92 in WSW 0.1 mph 1.2 mph 97 % 0.01 in
20:24 60.4 °F 59.5 °F 29.92 in WSW 1.2 mph 3.5 mph 97 % 0.01 in
20:29 60.4 °F 59.5 °F 29.92 in WSW 0.2 mph 2.3 mph 97 % 0.01 in
20:34 60.4 °F 59.5 °F 29.92 in WSW 0.8 mph 1.2 mph 97 % 0.00 in
20:39 60.4 °F 59.5 °F 29.92 in Calm     97 % 0.00 in
20:44 60.4 °F 59.5 °F 29.93 in WSW 0.1 mph 3.5 mph 97 % 0.00 in
20:49 60.4 °F 59.5 °F 29.93 in WSW 0.5 mph 3.0 mph 97 % 0.00 in
20:54 60.4 °F 59.5 °F 29.92 in Calm     97 % 0.00 in
20:59 60.4 °F 59.5 °F 29.92 in WSW 0.4 mph 2.3 mph 97 % 0.00 in
21:04 60.4 °F 59.5 °F 29.92 in Calm     97 % 0.00 in
21:09 60.4 °F 59.5 °F 29.92 in WSW 0.3 mph 1.2 mph 97 % 0.00 in
21:14 60.4 °F 59.5 °F 29.92 in WSW 0.3 mph 1.0 mph 97 % 0.00 in
21:20 60.4 °F 59.5 °F 29.92 in Calm   3.5 mph 97 % 0.00 in
21:25 60.5 °F 59.6 °F 29.92 in WSW 0.6 mph 3.5 mph 97 % 0.00 in
21:30 60.4 °F 59.5 °F 29.92 in WSW 1.0 mph 2.0 mph 97 % 0.00 in
21:35 60.4 °F 59.5 °F 29.92 in Calm   1.2 mph 97 % 0.00 in
21:40 60.4 °F 59.5 °F 29.92 in Calm     97 % 0.00 in
21:45 60.4 °F 59.5 °F 29.92 in WSW 0.2 mph   97 % 0.00 in
21:50 60.4 °F 59.5 °F 29.93 in WSW 0.5 mph 3.5 mph 97 % 0.00 in
21:55 60.4 °F 59.5 °F 29.92 in WSW 1.2 mph 3.0 mph 97 % 0.00 in
22:00 60.4 °F 59.5 °F 29.92 in Calm   1.2 mph 97 % 0.00 in
22:05 60.4 °F 59.5 °F 29.92 in Calm   2.3 mph 97 % 0.00 in
22:10 60.5 °F 59.6 °F 29.92 in Calm     97 % 0.00 in
22:15 60.4 °F 59.5 °F 29.93 in Calm     97 % 0.00 in
22:20 60.4 °F 59.5 °F 29.92 in WSW 0.1 mph 1.2 mph 97 % 0.00 in
22:25 60.3 °F 59.4 °F 29.92 in Calm     97 % 0.00 in
22:30 60.2 °F 59.3 °F 29.92 in Calm   1.2 mph 97 % 0.00 in
22:35 60.1 °F 59.2 °F 29.93 in Calm     97 % 0.00 in
22:40 59.9 °F 59.0 °F 29.92 in NNW 1.5 mph 3.0 mph 97 % 0.00 in
22:45 59.7 °F 58.6 °F 29.92 in NNW 0.2 mph 1.2 mph 96 % 0.00 in
22:50 59.5 °F 58.4 °F 29.92 in Calm   1.2 mph 96 % 0.00 in
22:55 59.3 °F 58.2 °F 29.91 in North 0.9 mph 2.3 mph 96 % 0.00 in
23:00 59.2 °F 58.1 °F 29.91 in NNE 0.1 mph 2.3 mph 96 % 0.00 in
23:05 59.0 °F 57.9 °F 29.91 in Calm   2.3 mph 96 % 0.00 in
23:10 58.9 °F 57.8 °F 29.91 in Calm     96 % 0.00 in
23:15 58.8 °F 57.7 °F 29.91 in North 0.8 mph 3.5 mph 96 % 0.00 in
23:20 58.7 °F 57.6 °F 29.92 in North 0.6 mph 3.5 mph 96 % 0.00 in
23:25 58.6 °F 57.5 °F 29.92 in North 0.8 mph 3.5 mph 96 % 0.00 in
23:30 58.5 °F 57.4 °F 29.92 in North 0.4 mph 1.2 mph 96 % 0.00 in
23:35 58.4 °F 57.3 °F 29.92 in Calm   1.2 mph 96 % 0.00 in
23:40 58.4 °F 57.3 °F 29.92 in Calm     96 % 0.00 in
23:45 58.3 °F 57.2 °F 29.92 in North 0.3 mph 2.3 mph 96 % 0.00 in
23:50 58.2 °F 57.1 °F 29.92 in North 0.7 mph 1.0 mph 96 % 0.00 in
23:55 58.2 °F 57.1 °F 29.92 in North 1.1 mph 3.5 mph 96 % 0.00 in
Crab Meadow Weather
Compliments of Weather Underground - 3 mb

Script developed by  Jim McMurry - jmcmurry@mwt.net Adapted for the template by  Wim van der Kuil - Leuven-Template.eu

Recycling: Out of every $10 spent buying things, $1 (10%) goes for packaging that is thrown away. Packaging represents about 65% of household trash.